METAR AND TAF INFORMATION
METAR FOR LEZG
ADDS - METARS form results

(1013 UTC 21 January 2018)
Data provider http://aviationweather.gov/adds/metars/
 
METAR text: LEZG 211000Z 29019KT 9999 FEW045 15/09 Q1026
Conditions at: LEZG (ZARAGOZA (MIL/CI, ES) observed 1000 UTC 21 January 2018
Temperature: 15.0°C (59°F)
Dewpoint: 9.0°C (48°F) [RH = 67%]
Pressure (altimeter): 30.30 inches Hg (1026.0 mb)
Winds: from the WNW (290 degrees) at 22 MPH (19 knots; 9.9 m/s)
Visibility: 6 or more miles (10+ km)
Ceiling: at least 12,000 feet AGL
Clouds: few clouds at 4500 feet AGL
Weather: no significant weather observed at this time

METAR text: LEZG 210930Z 29024KT 9999 SCT045 14/08 Q1026
Conditions at: LEZG (ZARAGOZA (MIL/CI, ES) observed 0930 UTC 21 January 2018
Temperature: 14.0°C (57°F)
Dewpoint: 8.0°C (46°F) [RH = 67%]
Pressure (altimeter): 30.30 inches Hg (1026.0 mb)
Winds: from the WNW (290 degrees) at 28 MPH (24 knots; 12.5 m/s)
Visibility: 6 or more miles (10+ km)
Ceiling: at least 12,000 feet AGL
Clouds: scattered clouds at 4500 feet AGL
Weather: no significant weather observed at this time

Forecast for: LEZG (ZARAGOZA (MIL/CI, ES)
Text: TAF LEZG 210500Z 2106/2206 30010KT 9999 SCT040 TX17/2114Z TN10/2107Z
Forecast period: 0600 UTC 21 January 2018 to 0600 UTC 22 January 2018
Forecast type: FROM: standard forecast or significant change
Winds: from the WNW (300 degrees) at 12 MPH (10 knots; 5.2 m/s)
Visibility: 6 or more miles (10+ km)
Clouds: scattered clouds at 4000 feet AGL
Weather: no significant weather forecast for this period
Text: TEMPO 2110/2118 31020G30KT
Forecast period: 1000 to 1800 UTC 21 January 2018
Forecast type: TEMPORARY: The following changes expected for less than half the time period
Winds: from the NW (310 degrees) at 23 MPH (20 knots; 10.4 m/s)
gusting to 34 MPH (30 knots; 15.6 m/s)
Weather: no significant weather forecast for this period

 AIRPORT MAP

 RUNWAY INFORMATION
Runway 12L Runway length 9843 ft Runway width 148 ft
Runway elevation 823 ft Runway displaced threshold 0 ft Runway heading 120
Runway 30R Runway length 9843 ft Runway width 148 ft
Runway elevation 834 ft Runway displaced threshold 0 ft Runway heading 300
Runway 12R Runway length 12198 ft Runway width 148 ft
Runway elevation 834 ft Runway displaced threshold 0 ft Runway heading 120
Runway 30L Runway length 12198 ft Runway width 148 ft
Runway elevation 863 ft Runway displaced threshold 0 ft Runway heading 300

 AIRPORT FREQUENCIES
Type APP Name APP Frequency 119.3 MHZ
Type GND Name GND Frequency 118.1 MHZ
Type TWR Name TWR Frequency 118.1 MHZ

 AIRPORT NEAR NAVIGATION AIDS
Type VOR-DME Name Zaragoza Frequency 113000 KHZ
Type NDB Name Zaragoza Frequency 389 KHZ
Type TACAN Name Zaragoza Frequency 133700 KHZ
Type NDB Name Zaragoza Frequency 348 KHZ



v2.6.1